Nottingham - western half: Past 24 Hour Conditions

 

Iqaluit Airport

01:00 AM EST 24 November 2014
This table is a summary of hourly weather conditions for the past 24 hours.
Date / Time
(EST)
Wind(knots) Conditions Visibility(km) Pressure(kPa) Air tempC) Relative humidity(%) Dew pointC) Wind Chill
24 November 2014
1:00 NW 8 Ice Crystals 24 99.8 -19 72 -23 -27
0:00 NNW 8 Ice Crystals 24 99.8 -18 75 -21 -26
23 November 2014
23:00 NNW 4 Ice Crystals 24 99.8 -21 75 -24 -27
22:00 NW 2 Mainly Clear 24 99.7 -21 74 -25 -24
21:00 NW 6 Mainly Clear 24 99.7 -20 74 -23 -27
20:00 WNW 10 gust 15 Ice Crystals 24 99.8 -18 74 -22 -28
19:00 NW 12 gust 17 Ice Crystals 8 99.8 -19 75 -22 -30
18:00 NW 16 Ice Crystals 8 99.7 -19 76 -22 -31
17:00 NW 13 Ice Crystals 24 99.7 -21 71 -25 -32
16:00 NW 18 Ice Crystals 5 99.6 -20 74 -24 -33
15:00 NNW 19 gust 24 Drifting Snow 24 99.6 -20 73 -23 -33
14:00 WNW 11 gust 17 Drifting Snow 16 99.5 -20 72 -24 -30
13:00 NNW 18 gust 26 Drifting Snow 16 99.5 -20 73 -23 -33
12:00 NW 17 Drifting Snow 16 99.4 -19 74 -23 -32
11:00 NNW 20 gust 26 Ice Crystals 48 99.4 -19 75 -22 -32
10:00 NNW 18 Ice Crystals 6 99.4 -18 77 -22 -31
9:00 NW 15 Ice Crystals 10 99.5 -19 75 -23 -31
8:00 NNW 14 Ice Crystals 8 99.5 -18 77 -22 -30
7:00 NW 16 Ice Crystals 8 99.5 -18 78 -21 -30
6:00 NNW 17 Ice Crystals 3 99.5 -17 80 -20 -29
5:00 NW 9 gust 15 Ice Crystals 2 99.6 -16 80 -19 -25
4:00 NW 11 Ice Crystals 16 99.5 -18 79 -21 -28
3:00 NW 9 Ice Crystals 24 99.5 -18 77 -21 -27
2:00 NW 11 Clear 24 99.5 -19 77 -22 -29
1:00 NNW 8 Clear 24 99.5 -19 78 -21 -27
 
Map of Arctic - Eastern Arctic marine weather areas Baker Lake Airport Chesterfield Inlet Airport Coral Harbour Airport Gjoa Haven Airport Kugaaruk Airport Rankin Inlet Airport Shepherd Bay Airport Whale Cove Airport Arctic Bay Brevoort Island Qikiqtarjuaq Airport Cape Dorset Airport Cape Dyer Cape Hooper Clyde Airport Grise Fiord Airport Hall Beach Airport Igloolik Airport Iqaluit Airport Longstaff Bluff Pangnirtung Airport Pond Inlet Airport Repulse Bay Airport Resolute Airport Resolution Island Rowley Island Airport Taloyoak Airport Wager Bay Akulivik Airport Ivujivik Airport Puvirnituq Airport Kangiqsujuaq Airport Kangirsuk Airport Quaqtaq Airport Tasiujaq Airport Cape Kakkiviak Cape Kiglapait Nain Airport Saglek Cape Mercy Kimmirut Airport Aupaluk Airport Salluit Airport Kangiqsualujjuaq Airport Fort Ross
Legend: buoyBuoy land stationLand Station